Time;durP1;ratioP1;P1;durP2;ratioP2;P2;SDS_P1;SDS_P2;PMS_P1;PMS_P2;Temp;Humidity;BMP_temperature;BMP_pressure;BME280_temperature;BME280_humidity;BME280_pressure;Samples;Min_cycle;Max_cycle;Signal;HPM_P1;HPM_P2
2022/12/09 00:00:28;;;;;;;17.27;8.95;;;;;;;7.67;86.73;101288.63;4924758;28;20035;-83
2022/12/09 00:02:53;;;;;;;15.02;8.48;;;;;;;7.62;86.52;101272.47;4940672;28;20473;-83
2022/12/09 00:05:19;;;;;;;15.32;9.05;;;;;;;7.53;86.54;101263.25;4940683;28;20041;-83
2022/12/09 00:07:44;;;;;;;15.93;7.93;;;;;;;7.66;86.51;101286.94;4924337;28;20077;-83
2022/12/09 00:10:10;;;;;;;11.73;6.30;;;;;;;7.32;86.58;101238.06;4973692;28;20030;-83
2022/12/09 00:12:35;;;;;;;19.35;11.32;;;;;;;7.63;86.85;101284.47;4956419;28;20030;-83
2022/12/09 00:15:01;;;;;;;19.80;11.68;;;;;;;7.60;87.06;101280.25;4940378;28;20038;-83
2022/12/09 00:17:26;;;;;;;18.13;9.57;;;;;;;7.51;86.87;101277.91;4956324;28;20058;-83
2022/12/09 00:19:51;;;;;;;21.33;10.10;;;;;;;7.61;86.53;101287.06;4940134;28;20508;-83
2022/12/09 00:22:17;;;;;;;18.40;8.35;;;;;;;7.37;86.73;101241.34;4939962;28;20031;-83
2022/12/09 00:24:42;;;;;;;15.23;8.77;;;;;;;7.67;86.80;101294.66;4940101;28;20572;-83
2022/12/09 00:27:08;;;;;;;15.30;8.68;;;;;;;7.66;86.65;101305.81;4939822;28;20090;-83
2022/12/09 00:29:33;;;;;;;17.50;9.82;;;;;;;7.39;87.16;101271.34;4940380;28;20062;-83
2022/12/09 00:31:59;;;;;;;19.67;8.07;;;;;;;7.61;87.27;101292.22;4940000;28;20485;-83
2022/12/09 00:34:24;;;;;;;16.88;8.48;;;;;;;7.67;87.20;101302.38;4940320;28;20121;-83
2022/12/09 00:36:50;;;;;;;16.33;9.00;;;;;;;7.58;87.27;101284.59;4923791;28;20066;-83
2022/12/09 00:39:15;;;;;;;13.70;8.70;;;;;;;7.52;87.07;101284.72;4956038;28;20043;-83
2022/12/09 00:41:41;;;;;;;12.27;7.40;;;;;;;7.56;87.80;101295.78;4955907;28;20038;-83
2022/12/09 00:44:07;;;;;;;15.52;8.20;;;;;;;7.61;87.71;101310.25;4956098;28;20030;-83
2022/12/09 00:46:32;;;;;;;17.40;8.80;;;;;;;7.46;87.63;101287.47;4939729;28;20023;-83
2022/12/09 00:48:58;;;;;;;13.65;9.07;;;;;;;7.62;87.69;101303.38;4923948;28;20031;-83
2022/12/09 00:51:23;;;;;;;18.35;9.40;;;;;;;7.62;87.86;101309.38;4955090;28;20034;-83
2022/12/09 00:53:54;;;;;;;18.77;9.93;;;;;;;7.54;87.65;101282.13;4939777;28;20031;-83
2022/12/09 00:56:24;;;;;;;14.55;6.72;;;;;;;7.61;87.27;101297.38;4940696;28;20503;-83
2022/12/09 00:58:49;;;;;;;21.40;8.38;;;;;;;7.52;86.89;101271.88;4923469;28;20034;-83
2022/12/09 01:01:15;;;;;;;17.27;8.63;;;;;;;7.64;86.67;101289.56;4939423;28;20026;-83
2022/12/09 01:03:40;;;;;;;13.63;7.07;;;;;;;7.56;87.34;101299.22;4939651;28;20042;-83
2022/12/09 01:06:10;;;;;;;10.75;5.75;;;;;;;7.44;87.25;101271.22;4939103;28;20494;-83
2022/12/09 01:08:36;;;;;;;15.48;8.15;;;;;;;7.53;86.84;101277.84;4939294;28;20109;-84
2022/12/09 01:11:10;;;;;;;11.57;6.53;;;;;;;7.47;86.84;101271.13;4939085;28;20066;-83
2022/12/09 01:13:35;;;;;;;13.77;8.45;;;;;;;7.54;86.90;101285.53;4923749;28;20027;-83
2022/12/09 01:16:01;;;;;;;16.48;9.15;;;;;;;7.51;87.64;101283.06;4939347;28;20438;-83
2022/12/09 01:18:26;;;;;;;13.00;7.57;;;;;;;7.56;87.41;101288.06;4954776;28;20050;-83
2022/12/09 01:20:58;;;;;;;13.18;6.32;;;;;;;7.61;87.27;101287.06;4923079;28;20031;-83
2022/12/09 01:23:24;;;;;;;16.23;7.82;;;;;;;7.64;86.79;101279.25;4938828;28;20039;-83
2022/12/09 01:25:49;;;;;;;16.83;7.80;;;;;;;7.66;86.78;101279.22;4938948;28;20030;-83
2022/12/09 01:28:14;;;;;;;14.57;6.95;;;;;;;7.59;87.04;101268.25;4923113;28;20511;-83
2022/12/09 01:30:41;;;;;;;14.60;6.47;;;;;;;7.62;86.65;101278.47;4938924;28;20055;-84
2022/12/09 01:33:07;;;;;;;14.77;7.05;;;;;;;7.55;86.74;101260.63;4938797;28;20037;-83
2022/12/09 01:35:32;;;;;;;13.90;7.63;;;;;;;7.50;86.89;101257.34;4954452;28;20022;-83
2022/12/09 01:37:58;;;;;;;22.00;8.40;;;;;;;7.54;86.40;101262.38;4923131;28;20563;-83
2022/12/09 01:40:23;;;;;;;12.05;7.20;;;;;;;7.61;85.70;101284.50;4938984;28;20035;-83
2022/12/09 01:42:49;;;;;;;11.55;5.68;;;;;;;7.55;86.47;101271.78;4939021;28;20105;-83
2022/12/09 01:45:36;;;;;;;11.70;6.68;;;;;;;7.59;86.86;101277.72;4939026;28;20052;-83
2022/12/09 01:48:15;;;;;;;16.95;7.82;;;;;;;7.58;87.04;101269.13;4955011;28;20158;-83
2022/12/09 01:50:55;;;;;;;14.63;6.13;;;;;;;7.55;87.00;101258.91;4939474;28;20030;-83
2022/12/09 01:53:23;;;;;;;16.17;6.45;;;;;;;7.49;86.86;101264.22;4954762;28;20031;-83
2022/12/09 01:55:49;;;;;;;13.60;6.68;;;;;;;7.45;87.40;101270.31;4939077;28;20054;-83
2022/12/09 01:58:14;;;;;;;17.67;6.22;;;;;;;7.48;86.84;101271.09;4923017;28;20069;-83
2022/12/09 02:00:40;;;;;;;14.95;7.03;;;;;;;7.55;87.06;101271.78;4938906;28;20419;-83
2022/12/09 02:03:06;;;;;;;11.25;5.55;;;;;;;7.53;86.70;101263.25;4954768;28;20102;-83
2022/12/09 02:05:31;;;;;;;16.08;7.95;;;;;;;7.57;86.45;101274.31;4938741;28;20034;-83
2022/12/09 02:07:57;;;;;;;15.07;6.68;;;;;;;7.56;86.66;101264.91;4938482;28;20038;-83
2022/12/09 02:10:22;;;;;;;13.70;6.90;;;;;;;7.40;86.82;101236.16;4954655;28;20477;-83
2022/12/09 02:12:57;;;;;;;19.95;8.48;;;;;;;7.55;86.60;101256.31;4938699;28;20062;-83
2022/12/09 02:15:49;;;;;;;15.07;7.65;;;;;;;7.57;87.12;101246.84;4971831;28;20034;-83
2022/12/09 02:18:21;;;;;;;13.07;6.57;;;;;;;7.55;87.06;101256.31;4954094;28;20082;-83
2022/12/09 02:20:56;;;;;;;20.70;8.82;;;;;;;7.31;87.37;101215.78;4939262;28;20122;-83
2022/12/09 02:23:45;;;;;;;9.73;5.43;;;;;;;7.61;86.66;101263.91;4954923;28;20077;-83
2022/12/09 02:26:21;;;;;;;10.60;7.90;;;;;;;7.58;86.53;101261.41;4954252;28;20542;-83
2022/12/09 02:28:51;;;;;;;10.68;7.53;;;;;;;7.57;86.82;101262.31;4954169;28;20489;-83
2022/12/09 02:31:26;;;;;;;11.27;6.10;;;;;;;7.55;86.29;101255.47;4938278;28;20085;-83
2022/12/09 02:34:13;;;;;;;16.83;7.50;;;;;;;7.49;86.76;101259.06;4971387;28;20023;-83
2022/12/09 02:37:12;;;;;;;13.00;6.80;;;;;;;7.64;85.99;101261.22;4954582;28;20086;-83
2022/12/09 02:39:41;;;;;;;13.50;6.93;;;;;;;7.52;86.21;101259.00;4953944;28;20030;-83
2022/12/09 02:42:07;;;;;;;17.27;8.45;;;;;;;7.41;86.83;101254.13;4954675;28;20030;-83
2022/12/09 02:44:32;;;;;;;12.07;7.55;;;;;;;7.47;86.56;101258.25;4938452;28;20042;-83
2022/12/09 02:46:58;;;;;;;20.35;8.68;;;;;;;7.29;86.40;101230.44;4941404;28;20034;-83
2022/12/09 02:49:24;;;;;;;12.07;6.95;;;;;;;7.46;86.38;101259.13;4941734;28;20586;-83
2022/12/09 02:51:49;;;;;;;16.52;6.10;;;;;;;7.26;86.65;101233.06;4941895;28;20413;-83
2022/12/09 02:54:16;;;;;;;13.73;6.72;;;;;;;7.40;87.11;101255.00;4926015;28;20413;-83
2022/12/09 02:56:52;;;;;;;17.17;8.70;;;;;;;7.35;87.22;101250.84;4926080;28;20035;-83
2022/12/09 02:59:18;;;;;;;11.88;6.75;;;;;;;7.46;86.86;101266.84;4926626;28;20023;-83
2022/12/09 03:02:05;;;;;;;18.98;7.28;;;;;;;7.35;87.56;101263.72;4941656;28;20023;-83
2022/12/09 03:04:30;;;;;;;11.48;6.47;;;;;;;7.35;87.78;101256.84;4942429;28;20034;-83
2022/12/09 03:07:06;;;;;;;9.73;6.43;;;;;;;7.10;87.42;101215.47;4941335;28;20432;-83
2022/12/09 03:09:33;;;;;;;15.82;7.35;;;;;;;7.47;86.93;101263.41;4942442;28;20039;-83
2022/12/09 03:12:00;;;;;;;11.23;5.40;;;;;;;7.41;86.24;101243.81;4941428;28;20420;-83
2022/12/09 03:14:36;;;;;;;11.48;6.30;;;;;;;7.41;86.75;101266.16;4941122;28;20034;-83
2022/12/09 03:17:12;;;;;;;13.38;7.00;;;;;;;7.51;86.73;101270.19;4940811;28;20038;-83
2022/12/09 03:19:59;;;;;;;12.13;6.95;;;;;;;7.42;87.17;101254.97;4941467;28;20039;-83
2022/12/09 03:22:28;;;;;;;11.02;5.97;;;;;;;7.46;86.18;101251.41;4941222;28;20035;-83
2022/12/09 03:25:11;;;;;;;9.98;5.90;;;;;;;7.47;86.04;101253.09;4941370;28;20037;-83
2022/12/09 03:27:44;;;;;;;9.77;5.28;;;;;;;7.18;85.94;101210.13;4942778;28;20066;-83
2022/12/09 03:30:10;;;;;;;15.30;6.28;;;;;;;7.22;86.55;101214.28;4941416;28;20034;-83
2022/12/09 03:32:37;;;;;;;11.25;5.55;;;;;;;7.48;86.49;101241.94;4941106;28;20122;-83
2022/12/09 03:35:07;;;;;;;11.52;5.82;;;;;;;7.37;86.73;101229.31;4941099;28;20027;-83
2022/12/09 03:37:34;;;;;;;9.52;6.63;;;;;;;7.40;87.33;101252.44;4925624;28;20031;-83
2022/12/09 03:39:59;;;;;;;14.40;6.88;;;;;;;7.40;87.30;101251.59;4925054;28;20027;-83
2022/12/09 03:42:32;;;;;;;13.18;6.40;;;;;;;7.44;87.15;101248.03;4940906;28;20078;-83
2022/12/09 03:45:01;;;;;;;10.23;5.80;;;;;;;7.45;86.93;101258.28;4940739;28;20074;-83
2022/12/09 03:47:26;;;;;;;14.38;6.78;;;;;;;7.41;87.03;101263.56;4940751;28;20559;-83
2022/12/09 03:49:52;;;;;;;15.80;7.43;;;;;;;7.28;87.11;101228.75;4940741;28;20035;-83
2022/12/09 03:52:31;;;;;;;13.15;6.60;;;;;;;7.40;86.69;101251.59;4940926;28;20499;-83
2022/12/09 03:54:58;;;;;;;12.25;6.68;;;;;;;7.39;86.83;101245.59;4940561;28;20480;-83
2022/12/09 03:57:23;;;;;;;12.82;5.32;;;;;;;7.41;86.56;101250.72;4940463;28;20022;-83
2022/12/09 03:59:51;;;;;;;15.73;6.13;;;;;;;7.36;86.74;101245.66;4924463;28;20031;-83
2022/12/09 04:02:17;;;;;;;16.70;7.25;;;;;;;7.25;86.22;101215.94;4940769;28;20035;-83
2022/12/09 04:04:42;;;;;;;14.27;6.18;;;;;;;7.31;86.77;101242.38;4940608;28;20093;-83
2022/12/09 04:07:08;;;;;;;17.15;7.05;;;;;;;7.42;86.93;101231.78;4924607;28;20027;-80
2022/12/09 04:09:34;;;;;;;11.18;4.55;;;;;;;7.61;85.79;101240.72;4940329;28;20393;-80
2022/12/09 04:11:59;;;;;;;16.27;6.57;;;;;;;7.39;85.83;101206.16;4940599;28;20031;-80
2022/12/09 04:14:25;;;;;;;11.50;6.03;;;;;;;7.54;86.13;101218.59;4956057;28;20034;-80
2022/12/09 04:16:50;;;;;;;17.98;8.23;;;;;;;7.66;85.33;101232.88;4956227;28;20067;-80
2022/12/09 04:19:16;;;;;;;10.98;5.38;;;;;;;7.52;85.56;101204.91;4939938;28;20054;-80
2022/12/09 04:21:41;;;;;;;6.78;3.83;;;;;;;7.64;85.92;101235.47;4940208;28;20034;-80
2022/12/09 04:24:07;;;;;;;12.32;6.57;;;;;;;7.66;85.42;101236.28;4940391;28;20118;-80
2022/12/09 04:26:33;;;;;;;10.32;5.43;;;;;;;7.57;85.57;101228.84;4940268;28;20023;-80
2022/12/09 04:28:58;;;;;;;9.52;5.00;;;;;;;7.60;85.76;101248.50;4939626;28;20062;-80
2022/12/09 04:31:24;;;;;;;11.35;6.38;;;;;;;7.64;85.90;101244.94;4956133;28;20027;-79
2022/12/09 04:33:49;;;;;;;13.15;6.88;;;;;;;7.57;86.01;101238.25;4940482;28;20035;-80
2022/12/09 04:36:17;;;;;;;7.60;5.38;;;;;;;7.87;85.15;101252.91;4955659;28;20464;-80
2022/12/09 04:38:42;;;;;;;9.52;5.80;;;;;;;7.87;84.27;101236.59;4943679;28;20027;-77
2022/12/09 04:41:08;;;;;;;10.50;6.85;;;;;;;7.89;83.80;101238.25;4952214;28;20499;-81
2022/12/09 04:43:33;;;;;;;12.50;5.95;;;;;;;7.88;83.63;101228.00;4923408;28;20572;-80
2022/12/09 04:46:00;;;;;;;13.80;6.47;;;;;;;7.83;83.63;101227.25;4939980;28;20035;-81
2022/12/09 04:48:26;;;;;;;13.25;5.53;;;;;;;7.67;84.52;101225.13;4939422;28;20031;-80
2022/12/09 04:50:51;;;;;;;11.20;5.93;;;;;;;7.72;84.45;101217.25;4938774;28;20035;-80
2022/12/09 04:53:17;;;;;;;13.20;6.45;;;;;;;7.69;84.04;101218.19;4939884;28;20026;-80
2022/12/09 04:55:42;;;;;;;8.93;5.25;;;;;;;7.56;84.72;101232.25;4923649;28;20484;-80
2022/12/09 04:58:07;;;;;;;7.82;5.28;;;;;;;7.48;85.37;101224.75;4954606;28;20054;-80
2022/12/09 05:00:33;;;;;;;13.88;7.05;;;;;;;7.45;86.27;101229.13;4923541;28;20022;-80
2022/12/09 05:02:58;;;;;;;11.95;7.18;;;;;;;7.53;85.97;101246.97;4939081;28;20034;-80
2022/12/09 05:05:24;;;;;;;10.75;6.32;;;;;;;7.55;85.76;101245.19;4939327;28;20471;-81
2022/12/09 05:07:49;;;;;;;9.10;6.38;;;;;;;7.44;85.57;101232.59;4954295;28;20113;-81
2022/12/09 05:10:15;;;;;;;11.55;6.05;;;;;;;7.50;85.45;101249.63;4918038;29;20453;-80
2022/12/09 05:12:40;;;;;;;14.65;6.53;;;;;;;7.37;86.39;101236.19;4953404;28;20061;-80
2022/12/09 05:15:06;;;;;;;13.95;6.80;;;;;;;7.45;86.25;101249.72;4922288;28;20035;-82
2022/12/09 05:17:32;;;;;;;12.63;7.45;;;;;;;7.34;86.83;101231.16;4953191;28;20054;-80
2022/12/09 05:19:57;;;;;;;8.98;4.47;;;;;;;7.27;86.32;101220.16;4965532;28;20053;-82
2022/12/09 05:22:23;;;;;;;11.95;6.97;;;;;;;7.58;86.25;101265.72;4991500;28;20023;-77
2022/12/09 05:24:48;;;;;;;7.03;4.97;;;;;;;7.45;85.88;101231.72;4974222;28;20034;-77
2022/12/09 05:27:14;;;;;;;16.42;6.70;;;;;;;7.56;85.42;101250.28;4973726;28;20583;-79
2022/12/09 05:29:39;;;;;;;14.35;6.22;;;;;;;7.55;85.82;101246.03;4974179;28;20032;-79
2022/12/09 05:32:05;;;;;;;10.65;5.55;;;;;;;7.56;85.72;101252.88;4980968;28;20027;-85
2022/12/09 05:34:31;;;;;;;9.95;5.57;;;;;;;7.59;85.38;101262.25;4972037;28;20042;-86
2022/12/09 05:36:56;;;;;;;8.20;4.72;;;;;;;7.53;85.80;101273.56;4947594;28;20034;-83
2022/12/09 05:39:22;;;;;;;17.17;6.72;;;;;;;7.48;85.85;101265.97;4957127;28;20034;-83
2022/12/09 05:41:48;;;;;;;13.85;6.65;;;;;;;7.53;85.13;101265.81;4973103;28;20037;-92
2022/12/09 05:44:13;;;;;;;12.77;5.80;;;;;;;7.53;85.53;101278.69;4945664;28;20022;-89
2022/12/09 05:46:39;;;;;;;11.48;6.25;;;;;;;7.27;85.91;101234.75;4938262;28;20054;-81
2022/12/09 05:49:04;;;;;;;10.43;5.95;;;;;;;7.55;85.61;101271.78;4970689;28;20034;-84
2022/12/09 05:51:30;;;;;;;13.52;6.25;;;;;;;7.63;84.97;101269.84;4971439;28;20509;-87
2022/12/09 05:53:56;;;;;;;11.65;6.75;;;;;;;7.50;85.28;101250.47;4973285;28;20026;-88
2022/12/09 05:56:22;;;;;;;14.98;6.22;;;;;;;7.40;85.51;101241.28;4964900;28;20027;-83
2022/12/09 05:58:48;;;;;;;14.10;7.47;;;;;;;7.46;85.91;101256.56;4938685;28;20049;-79
2022/12/09 06:01:13;;;;;;;12.80;7.57;;;;;;;7.63;85.00;101259.53;4937729;28;20484;-84
2022/12/09 06:03:39;;;;;;;19.35;8.25;;;;;;;7.57;85.27;101257.16;4952867;28;20492;-80
2022/12/09 06:06:09;;;;;;;9.73;6.30;;;;;;;7.56;85.80;101255.44;4938196;28;20062;-80
2022/12/09 06:08:35;;;;;;;10.60;6.70;;;;;;;7.55;85.30;101258.91;4935836;28;20094;-80
2022/12/09 06:11:01;;;;;;;14.65;7.78;;;;;;;7.48;85.14;101235.06;4954054;28;20030;-82
2022/12/09 06:13:26;;;;;;;11.57;6.95;;;;;;;7.50;85.12;101245.31;4973148;28;20038;-82
2022/12/09 06:15:52;;;;;;;15.15;6.68;;;;;;;7.51;84.96;101244.44;4935212;28;20038;-89
2022/12/09 06:18:17;;;;;;;14.75;9.18;;;;;;;7.59;84.41;101257.94;4919260;28;20075;-86
2022/12/09 06:20:43;;;;;;;17.60;7.47;;;;;;;7.55;85.11;101255.47;4934379;28;20076;-81
2022/12/09 06:23:08;;;;;;;13.98;7.43;;;;;;;7.58;84.88;101265.72;4961517;28;20461;-85
2022/12/09 06:25:34;;;;;;;14.07;8.45;;;;;;;7.53;84.76;101270.13;4960535;28;20034;-80
2022/12/09 06:27:59;;;;;;;17.77;9.93;;;;;;;7.51;85.01;101267.59;4994018;28;20026;-87
2022/12/09 06:30:25;;;;;;;22.15;10.30;;;;;;;7.68;85.72;101280.88;4962440;28;20058;-89
2022/12/09 06:32:50;;;;;;;17.98;8.77;;;;;;;7.72;85.62;101287.63;4956727;28;20035;-85
2022/12/09 06:35:16;;;;;;;16.23;8.25;;;;;;;7.76;85.38;101293.53;4941796;28;20499;-92
2022/12/09 06:37:41;;;;;;;17.27;8.77;;;;;;;7.97;84.71;101279.25;4946275;28;20038;-84
2022/12/09 06:40:07;;;;;;;15.85;8.07;;;;;;;7.85;84.03;101270.09;4962890;28;20069;-83
2022/12/09 06:42:33;;;;;;;14.52;7.13;;;;;;;8.04;83.97;101275.59;4957132;28;20033;-82
2022/12/09 06:44:58;;;;;;;16.20;7.85;;;;;;;8.08;83.75;101260.91;4957184;28;20031;-76
2022/12/09 06:47:24;;;;;;;13.35;7.82;;;;;;;8.24;82.37;101280.19;4956757;28;20527;-92
2022/12/09 06:49:49;;;;;;;12.77;6.50;;;;;;;8.34;81.93;101269.59;4937579;29;20039;-82
2022/12/09 06:52:15;;;;;;;12.35;7.03;;;;;;;8.20;80.77;101248.50;4938177;29;20027;-79
2022/12/09 06:54:40;;;;;;;13.70;6.90;;;;;;;8.33;81.24;101283.34;4955119;29;20028;-85
2022/12/09 06:57:06;;;;;;;10.55;4.85;;;;;;;8.47;81.20;101295.03;4949893;29;20075;-93
2022/12/09 06:59:31;;;;;;;13.80;7.10;;;;;;;8.32;80.57;101270.50;4922422;29;20102;-84
2022/12/09 07:01:57;;;;;;;10.10;6.97;;;;;;;8.24;80.02;101278.44;4937650;29;20109;-81
2022/12/09 07:04:22;;;;;;;9.60;4.63;;;;;;;8.15;80.76;101272.72;4940163;28;20485;-81
2022/12/09 07:06:48;;;;;;;11.65;5.22;;;;;;;8.14;81.56;101289.06;4981983;28;20026;-84
2022/12/09 07:09:15;;;;;;;13.52;5.47;;;;;;;8.05;81.42;101285.03;4949620;28;20039;-87
2022/12/09 07:11:45;;;;;;;18.63;9.02;;;;;;;8.13;81.48;101314.00;4951311;28;20026;-85
2022/12/09 07:14:11;;;;;;;10.48;5.95;;;;;;;8.01;81.48;101298.88;4954587;28;20031;-84
2022/12/09 07:16:37;;;;;;;12.50;6.50;;;;;;;8.07;81.71;101315.94;4957859;28;20023;-85
2022/12/09 07:19:03;;;;;;;19.63;8.45;;;;;;;7.94;81.60;101305.94;4939955;28;20110;-92
2022/12/09 07:21:28;;;;;;;8.90;5.53;;;;;;;7.81;82.30;101298.59;4925366;28;20019;-79
2022/12/09 07:23:54;;;;;;;12.07;5.75;;;;;;;7.79;82.73;101301.19;4939663;28;20412;-80
2022/12/09 07:26:19;;;;;;;9.93;6.18;;;;;;;7.75;82.40;101304.72;4938420;29;20028;-80
2022/12/09 07:28:49;;;;;;;9.77;5.95;;;;;;;7.70;83.15;101302.28;4945742;28;20038;-85
2022/12/09 07:31:23;;;;;;;14.40;6.95;;;;;;;7.62;83.46;101299.06;4941065;28;20027;-80
2022/12/09 07:33:49;;;;;;;12.95;7.68;;;;;;;7.69;83.98;101313.47;4973692;28;20058;-87
2022/12/09 07:36:14;;;;;;;14.02;7.47;;;;;;;7.97;84.79;101320.47;4940800;28;20507;-84
2022/12/09 07:38:40;;;;;;;11.65;6.13;;;;;;;7.91;82.09;101300.03;4937069;29;20032;-83
2022/12/09 07:41:07;;;;;;;12.82;5.78;;;;;;;7.94;82.17;101302.50;4921951;29;20039;-83
2022/12/09 07:43:33;;;;;;;11.57;5.20;;;;;;;8.02;81.49;101313.47;4921679;29;20500;-80
2022/12/09 07:45:59;;;;;;;22.15;5.40;;;;;;;8.03;81.78;101326.28;4965571;28;20426;-81
2022/12/09 07:48:24;;;;;;;6.85;4.30;;;;;;;8.05;82.17;101328.81;4945436;28;20031;-82
2022/12/09 07:50:50;;;;;;;8.57;4.60;;;;;;;8.07;81.22;101321.91;4936478;29;20136;-85
2022/12/09 07:53:15;;;;;;;15.20;6.85;;;;;;;8.26;81.95;101317.94;4936815;29;20055;-81
2022/12/09 07:55:41;;;;;;;11.18;5.65;;;;;;;8.05;80.76;101313.38;4960017;28;20042;-88
2022/12/09 07:58:06;;;;;;;12.45;5.60;;;;;;;8.11;81.40;101336.41;4968285;28;20420;-84
2022/12/09 08:00:31;;;;;;;11.85;6.25;;;;;;;8.02;82.45;101336.66;4959170;28;20034;-82
2022/12/09 08:02:57;;;;;;;9.13;5.55;;;;;;;8.05;82.32;101332.25;4992543;28;20448;-80
2022/12/09 08:05:22;;;;;;;11.93;6.22;;;;;;;7.91;82.27;101315.47;4959059;28;20029;-83
2022/12/09 08:07:48;;;;;;;6.57;4.57;;;;;;;7.93;81.78;101324.00;4958579;28;20062;-82
2022/12/09 08:10:13;;;;;;;11.90;5.85;;;;;;;7.96;81.49;101311.03;4975224;28;20489;-80
2022/12/09 08:12:39;;;;;;;8.50;5.40;;;;;;;8.03;81.29;101315.16;4972896;28;20461;-82
2022/12/09 08:15:05;;;;;;;7.55;3.92;;;;;;;8.10;81.75;101324.41;4951784;28;20026;-83
2022/12/09 08:17:31;;;;;;;6.78;3.78;;;;;;;8.06;81.20;101322.78;4958705;28;20051;-81
2022/12/09 08:19:57;;;;;;;6.93;4.32;;;;;;;8.00;81.05;101302.34;4952713;29;20114;-80
2022/12/09 08:22:22;;;;;;;13.70;5.55;;;;;;;8.10;81.61;101316.66;4936126;29;20031;-83
2022/12/09 08:24:48;;;;;;;14.32;6.05;;;;;;;8.13;81.84;101315.72;4946701;28;20122;-80
2022/12/09 08:27:13;;;;;;;8.13;4.90;;;;;;;8.06;81.86;101315.06;4972498;28;20088;-79
2022/12/09 08:29:39;;;;;;;13.48;6.72;;;;;;;7.95;81.32;101273.28;4946284;28;20031;-85
2022/12/09 08:32:05;;;;;;;14.85;6.30;;;;;;;8.07;81.09;101321.09;4939772;28;20108;-92
2022/12/09 08:34:30;;;;;;;9.80;5.65;;;;;;;7.96;81.01;101300.72;4939599;28;20536;-81
2022/12/09 08:36:56;;;;;;;15.95;6.60;;;;;;;7.96;81.53;101300.72;4954860;28;20026;-84
2022/12/09 08:39:21;;;;;;;12.13;5.50;;;;;;;8.08;81.48;101321.03;4956196;28;20034;-87
2022/12/09 08:41:47;;;;;;;12.07;6.07;;;;;;;7.97;81.76;101310.19;4938736;28;20031;-85
2022/12/09 08:44:14;;;;;;;13.02;7.32;;;;;;;8.14;82.28;101317.41;4938666;28;20034;-87
2022/12/09 08:46:41;;;;;;;13.25;5.47;;;;;;;8.13;81.85;101305.44;4939406;28;20082;-89
2022/12/09 08:49:07;;;;;;;10.07;5.68;;;;;;;8.21;81.75;101313.78;4939275;28;20030;-82
2022/12/09 08:51:32;;;;;;;10.57;6.00;;;;;;;8.21;81.39;101301.75;4972351;28;20031;-82
2022/12/09 08:53:58;;;;;;;6.68;3.85;;;;;;;8.12;81.96;101298.59;4935552;29;20039;-84
2022/12/09 08:56:24;;;;;;;6.05;4.03;;;;;;;8.05;82.89;101288.44;4940910;28;20077;-85
2022/12/09 08:58:49;;;;;;;8.77;5.00;;;;;;;8.17;82.86;101282.13;4946417;28;20121;-84
2022/12/09 09:01:22;;;;;;;13.75;4.85;;;;;;;8.12;82.57;101271.09;4938591;28;20086;-84
2022/12/09 09:03:48;;;;;;;9.10;5.28;;;;;;;8.23;82.64;101270.78;4940334;29;20030;-82
2022/12/09 09:06:14;;;;;;;7.43;3.63;;;;;;;8.26;82.00;101284.44;4919536;29;20027;-84
2022/12/09 09:08:39;;;;;;;13.13;5.13;;;;;;;8.21;80.58;101275.97;4919934;29;20054;-80
2022/12/09 09:11:09;;;;;;;8.23;4.28;;;;;;;8.05;81.33;101262.66;4935810;29;20493;-84
2022/12/09 09:13:37;;;;;;;10.48;7.40;;;;;;;7.89;82.65;101229.66;4937205;28;20053;-86
2022/12/09 09:16:02;;;;;;;14.30;8.73;;;;;;;8.11;82.36;101250.50;4966643;28;20512;-83
2022/12/09 09:18:28;;;;;;;12.80;5.95;;;;;;;8.12;81.84;101242.72;4971627;28;20076;-84
2022/12/09 09:20:57;;;;;;;12.98;6.80;;;;;;;7.86;81.29;101194.50;4973833;28;20034;-82
2022/12/09 09:23:23;;;;;;;5.78;3.83;;;;;;;8.17;81.97;101251.19;4972253;28;20037;-86
2022/12/09 09:25:49;;;;;;;6.72;3.65;;;;;;;8.21;82.47;101241.63;4974051;28;20073;-90
2022/12/09 09:28:14;;;;;;;7.97;4.68;;;;;;;7.99;80.49;101195.03;4973739;28;20034;-84
2022/12/09 09:30:40;;;;;;;9.82;5.57;;;;;;;8.19;81.68;101225.38;4991166;28;20041;-82
2022/12/09 09:33:06;;;;;;;8.73;5.38;;;;;;;8.12;82.12;101211.81;4956865;28;20080;-83
2022/12/09 09:35:32;;;;;;;13.32;4.45;;;;;;;8.09;81.92;101216.22;4950551;28;20088;-84
2022/12/09 09:37:57;;;;;;;8.68;4.07;;;;;;;8.22;81.08;101218.38;4964768;28;20035;-83
2022/12/09 09:40:23;;;;;;;9.98;5.22;;;;;;;8.17;81.93;101220.25;4934947;29;20090;-81
2022/12/09 09:42:49;;;;;;;11.43;5.10;;;;;;;8.24;81.70;101221.75;4935111;28;20035;-80
2022/12/09 09:45:20;;;;;;;13.00;6.28;;;;;;;8.20;81.79;101212.44;4939362;28;20504;-82
2022/12/09 09:47:57;;;;;;;11.18;6.40;;;;;;;8.00;81.09;101194.13;4942140;28;20093;-81
2022/12/09 09:50:32;;;;;;;9.65;5.45;;;;;;;8.09;80.50;101205.91;4956933;28;20038;-83
2022/12/09 09:52:58;;;;;;;9.57;4.82;;;;;;;7.92;80.96;101189.19;4990876;28;20496;-80
2022/12/09 09:55:32;;;;;;;7.13;3.67;;;;;;;7.95;81.63;101177.94;4956575;28;20038;-80
2022/12/09 09:58:04;;;;;;;8.10;4.20;;;;;;;8.09;81.83;101190.44;4957528;28;20413;-79
2022/12/09 10:00:39;;;;;;;10.38;4.18;;;;;;;7.95;82.28;101162.50;4973536;28;20026;-79
2022/12/09 10:03:38;;;;;;;9.50;3.28;;;;;;;8.02;81.30;101159.69;4955172;28;20120;-78
2022/12/09 10:06:32;;;;;;;6.38;3.80;;;;;;;8.22;80.56;101176.28;4956153;28;20030;-83
2022/12/09 10:09:16;;;;;;;9.50;3.15;;;;;;;8.16;79.93;101161.88;4970446;28;20042;-79
2022/12/09 10:12:26;;;;;;;11.60;5.25;;;;;;;8.23;80.80;101160.78;4962568;28;20041;-79
2022/12/09 10:15:07;;;;;;;5.90;4.07;;;;;;;8.10;79.42;101125.97;4968593;28;20045;-80
2022/12/09 10:17:34;;;;;;;10.00;4.47;;;;;;;8.29;79.14;101150.28;4953106;28;20046;-78
2022/12/09 10:20:17;;;;;;;5.55;3.10;;;;;;;8.20;79.07;101137.69;4937752;28;20053;-78
2022/12/09 10:22:52;;;;;;;4.82;3.22;;;;;;;8.31;80.10;101153.66;4939503;28;20039;-78
2022/12/09 10:25:24;;;;;;;6.28;3.03;;;;;;;8.24;80.95;101149.56;4937437;28;20118;-77
2022/12/09 10:28:08;;;;;;;;;;;;;;;8.40;80.12;101151.72;4971349;28;20027;-79
2022/12/09 10:30:34;;;;;;;11.80;5.85;;;;;;;8.02;81.24;101091.84;4970560;28;20013;-85
2022/12/09 10:32:59;;;;;;;11.48;5.53;;;;;;;7.91;80.70;101091.34;4937626;28;20085;-80
2022/12/09 10:35:27;;;;;;;9.27;4.80;;;;;;;8.17;80.78;101148.09;4953900;28;20030;-80
2022/12/09 10:37:53;;;;;;;13.00;5.88;;;;;;;8.15;82.01;101149.84;4937579;28;20555;-86
2022/12/09 10:40:35;;;;;;;19.27;7.30;;;;;;;8.17;81.75;101153.25;4954110;28;20030;-80
2022/12/09 10:43:33;;;;;;;14.68;6.78;;;;;;;8.16;80.91;101149.00;4952916;28;20031;-82
2022/12/09 10:45:59;;;;;;;10.60;5.85;;;;;;;8.08;81.80;101138.06;4954871;28;20034;-80
2022/12/09 10:48:48;;;;;;;11.48;5.63;;;;;;;7.98;82.47;101152.97;4938099;28;20543;-83
2022/12/09 10:51:23;;;;;;;9.45;4.95;;;;;;;8.07;81.90;101145.84;4960380;28;20034;-79
2022/12/09 10:53:53;;;;;;;14.00;6.18;;;;;;;7.90;81.89;101107.69;4970900;28;20031;-79
2022/12/09 10:56:21;;;;;;;11.15;6.78;;;;;;;8.07;82.16;101138.97;4971615;28;20226;-79
2022/12/09 10:58:46;;;;;;;20.77;7.07;;;;;;;7.86;82.10;101100.94;4957216;28;20089;-83
2022/12/09 11:01:14;;;;;;;20.90;8.60;;;;;;;7.98;81.75;101106.59;4970376;28;20031;-80
2022/12/09 11:03:45;;;;;;;18.08;9.60;;;;;;;7.87;81.73;101102.66;4947108;28;20081;-82
2022/12/09 11:06:17;;;;;;;16.80;9.40;;;;;;;7.94;82.39;101117.00;4971488;28;20166;-78
2022/12/09 11:08:49;;;;;;;13.27;6.47;;;;;;;7.90;81.78;101112.84;4973939;28;20026;-82
2022/12/09 11:11:14;;;;;;;12.93;6.93;;;;;;;7.90;82.33;101105.13;4940940;28;20034;-80
2022/12/09 11:13:41;;;;;;;17.38;7.10;;;;;;;8.00;82.47;101102.22;4938977;28;20030;-78
2022/12/09 11:16:06;;;;;;;19.23;7.78;;;;;;;8.00;82.15;101088.50;4936514;28;20026;-80
2022/12/09 11:18:42;;;;;;;25.17;7.60;;;;;;;8.12;81.91;101101.00;4955262;28;20089;-80
2022/12/09 11:21:30;;;;;;;11.23;5.78;;;;;;;8.18;81.23;101108.53;4942078;28;20035;-79
2022/12/09 11:23:56;;;;;;;13.40;6.38;;;;;;;8.11;79.67;101091.56;4961200;28;20480;-82
2022/12/09 11:26:30;;;;;;;14.25;8.40;;;;;;;8.17;80.93;101096.56;4923725;28;20035;-82
2022/12/09 11:29:05;;;;;;;10.55;7.43;;;;;;;8.01;80.65;101093.59;4939063;28;20053;-83
2022/12/09 11:31:32;;;;;;;12.98;5.43;;;;;;;8.02;81.20;101103.00;4938467;28;20081;-80